Time;durP1;ratioP1;P1;durP2;ratioP2;P2;SDS_P1;SDS_P2;PMS_P1;PMS_P2;Temp;Humidity;BMP_temperature;BMP_pressure;BME280_temperature;BME280_humidity;BME280_pressure;Samples;Min_cycle;Max_cycle;Signal;HPM_P1;HPM_P2
2023/07/13 00:01:21;;;;;;;16.70;3.40;;;;;;;17.12;86.55;101478.16;6118156;19;20012;-74
2023/07/13 00:03:27;;;;;;;15.00;4.60;;;;;;;17.10;87.13;101478.22;6116203;19;20327;-74
2023/07/13 00:05:35;;;;;;;16.92;3.78;;;;;;;17.11;86.38;101476.41;6116156;19;20518;-74
2023/07/13 00:07:40;;;;;;;16.15;3.80;;;;;;;17.14;86.49;101484.22;6117107;19;20022;-74
2023/07/13 00:09:46;;;;;;;17.02;3.83;;;;;;;17.11;86.43;101471.97;6116571;19;19999;-72
2023/07/13 00:11:54;;;;;;;14.10;4.28;;;;;;;17.16;85.94;101474.34;6116963;19;20038;-72
2023/07/13 00:13:59;;;;;;;10.65;3.38;;;;;;;17.22;85.25;101484.63;6112637;19;20090;-73
2023/07/13 00:16:04;;;;;;;12.25;2.95;;;;;;;17.19;84.38;101481.28;6114493;19;20473;-71
2023/07/13 00:18:12;;;;;;;13.02;3.70;;;;;;;17.16;84.82;101487.63;6117366;19;19999;-73
2023/07/13 00:20:17;;;;;;;12.07;2.90;;;;;;;17.19;84.38;101482.13;6113793;19;20014;-72
2023/07/13 00:22:23;;;;;;;12.98;3.88;;;;;;;17.21;84.18;101495.34;6115147;19;20078;-72
2023/07/13 00:24:31;;;;;;;13.02;3.63;;;;;;;17.20;83.73;101483.00;6113855;19;20021;-72
2023/07/13 00:26:40;;;;;;;11.07;3.47;;;;;;;17.22;83.68;101484.63;6115969;19;20006;-72
2023/07/13 00:28:46;;;;;;;11.32;3.20;;;;;;;17.21;83.25;101482.91;6115840;19;20074;-73
2023/07/13 00:30:50;;;;;;;15.73;3.40;;;;;;;17.23;83.41;101482.84;6116511;19;20018;-73
2023/07/13 00:33:01;;;;;;;9.90;3.38;;;;;;;17.16;83.41;101489.44;6116772;19;20014;-72
2023/07/13 00:35:24;;;;;;;12.45;3.30;;;;;;;17.17;83.52;101486.69;6115515;19;20073;-72
2023/07/13 00:37:29;;;;;;;10.52;3.00;;;;;;;17.17;83.16;101485.81;6114739;19;20525;-71
2023/07/13 00:39:38;;;;;;;12.52;3.85;;;;;;;17.15;83.58;101491.25;6116012;19;20131;-73
2023/07/13 00:41:44;;;;;;;16.15;3.50;;;;;;;17.17;83.79;101480.50;6115034;19;20077;-73
2023/07/13 00:43:49;;;;;;;13.43;3.00;;;;;;;17.17;83.75;101481.38;6115861;19;20194;-73
2023/07/13 00:46:24;;;;;;;14.90;4.03;;;;;;;17.12;83.79;101478.16;6115970;19;20010;-73
2023/07/13 00:48:32;;;;;;;10.65;3.60;;;;;;;17.07;83.25;101481.06;6111943;19;20018;-74
2023/07/13 00:50:41;;;;;;;11.07;2.90;;;;;;;16.97;83.92;101487.84;6114407;19;20010;-74
2023/07/13 00:52:53;;;;;;;14.80;3.15;;;;;;;16.98;84.29;101480.72;6114129;19;20123;-74
2023/07/13 00:54:59;;;;;;;12.55;3.05;;;;;;;16.92;84.63;101483.72;6115429;19;19999;-73
2023/07/13 00:57:09;;;;;;;13.75;3.35;;;;;;;16.89;84.77;101488.25;6114543;19;20037;-73
2023/07/13 00:59:18;;;;;;;11.23;3.78;;;;;;;16.87;84.89;101487.50;6116905;19;20503;-74
2023/07/13 01:01:24;;;;;;;13.63;3.40;;;;;;;16.84;85.09;101484.16;6113599;19;20018;-74
2023/07/13 01:03:29;;;;;;;13.38;3.08;;;;;;;16.81;84.94;101482.53;6113753;19;20074;-74
2023/07/13 01:05:36;;;;;;;13.52;3.40;;;;;;;16.85;85.41;101483.22;6114303;19;20010;-74
2023/07/13 01:07:47;;;;;;;9.88;2.72;;;;;;;16.82;85.60;101494.00;6115005;19;20014;-75
2023/07/13 01:09:52;;;;;;;9.50;2.88;;;;;;;16.78;85.77;101490.69;6114827;19;20011;-75
2023/07/13 01:12:00;;;;;;;13.48;3.45;;;;;;;16.73;85.26;101497.16;6114516;19;20006;-75
2023/07/13 01:14:08;;;;;;;10.95;3.03;;;;;;;16.63;85.82;101489.69;6115051;19;20508;-75
2023/07/13 01:16:17;;;;;;;11.60;3.10;;;;;;;16.66;85.65;101494.81;6114858;19;20362;-74
2023/07/13 01:18:26;;;;;;;7.68;2.50;;;;;;;16.63;85.23;101500.31;6113063;19;20019;-73
2023/07/13 01:20:29;;;;;;;7.50;2.90;;;;;;;16.57;85.15;101495.34;6114017;19;20014;-75
2023/07/13 01:22:37;;;;;;;12.10;2.78;;;;;;;16.55;84.39;101491.91;6114586;19;20397;-75
2023/07/13 01:24:46;;;;;;;9.45;2.50;;;;;;;16.52;84.01;101502.69;6113191;19;20090;-74
2023/07/13 01:26:51;;;;;;;7.38;2.60;;;;;;;16.52;83.91;101509.81;6113482;19;20010;-74
2023/07/13 01:28:53;;;;;;;8.02;2.60;;;;;;;16.48;83.99;101511.75;6112162;19;20469;-76
2023/07/13 01:31:03;;;;;;;7.38;2.17;;;;;;;16.47;83.74;101510.06;6113843;19;20467;-73
2023/07/13 01:33:06;;;;;;;14.27;4.07;;;;;;;16.41;84.16;101513.06;6114169;19;20459;-75
2023/07/13 01:35:12;;;;;;;7.30;2.85;;;;;;;16.39;84.04;101510.47;6114914;19;20015;-73
2023/07/13 01:37:17;;;;;;;9.90;3.55;;;;;;;16.36;84.67;101512.44;6115112;19;20503;-75
2023/07/13 01:39:25;;;;;;;7.43;2.88;;;;;;;16.32;83.91;101510.88;6115673;19;20009;-75
2023/07/13 01:41:35;;;;;;;7.03;2.28;;;;;;;16.33;84.20;101509.97;6114396;19;20018;-74
2023/07/13 01:43:40;;;;;;;6.45;2.38;;;;;;;16.24;83.86;101513.94;6114127;19;20486;-75
2023/07/13 01:45:48;;;;;;;4.72;1.95;;;;;;;16.21;83.66;101517.63;6113370;19;20025;-74
2023/07/13 01:47:53;;;;;;;5.30;1.85;;;;;;;16.19;83.20;101515.97;6115052;19;20022;-74
2023/07/13 01:49:58;;;;;;;6.18;1.77;;;;;;;16.23;82.53;101517.53;6113090;19;20010;-74
2023/07/13 01:52:04;;;;;;;7.07;2.10;;;;;;;16.19;82.27;101514.22;6114290;19;20010;-75
2023/07/13 01:54:09;;;;;;;5.00;1.80;;;;;;;16.18;82.36;101515.13;6114005;19;20014;-74
2023/07/13 01:56:16;;;;;;;3.92;1.67;;;;;;;16.18;82.09;101525.75;6112694;19;20498;-73
2023/07/13 01:58:21;;;;;;;4.32;1.83;;;;;;;16.12;82.60;101514.63;6114146;19;20010;-74
2023/07/13 02:00:28;;;;;;;7.30;1.88;;;;;;;16.09;82.08;101522.72;6116197;19;20026;-74
2023/07/13 02:02:33;;;;;;;3.35;1.65;;;;;;;16.07;82.23;101516.66;6112052;19;21163;-76
2023/07/13 02:04:40;;;;;;;5.30;1.70;;;;;;;16.05;82.43;101526.47;6111776;19;20031;-75
2023/07/13 02:06:45;;;;;;;3.65;1.70;;;;;;;16.05;82.87;101521.16;6115645;19;20042;-74
2023/07/13 02:08:50;;;;;;;7.13;2.17;;;;;;;16.02;82.51;101527.50;6114724;19;20013;-74
2023/07/13 02:10:55;;;;;;;8.88;2.10;;;;;;;16.01;82.79;101523.13;6113153;19;20018;-73
2023/07/13 02:13:08;;;;;;;4.20;1.58;;;;;;;16.00;82.77;101519.59;6113974;19;20011;-74
2023/07/13 02:15:10;;;;;;;;;;;;;;;16.01;82.86;101521.34;6115453;19;20007;-74
2023/07/13 02:17:16;;;;;;;6.55;2.30;;;;;;;16.04;83.47;101520.31;6114933;19;19970;-75
2023/07/13 02:19:21;;;;;;;4.93;2.28;;;;;;;16.05;83.08;101519.38;6115123;19;20010;-75
2023/07/13 02:21:27;;;;;;;4.97;2.13;;;;;;;16.07;83.44;101521.97;6114713;19;20505;-74
2023/07/13 02:23:32;;;;;;;6.00;2.25;;;;;;;16.07;84.04;101516.66;6114002;19;20017;-74
2023/07/13 02:25:40;;;;;;;7.05;2.30;;;;;;;16.04;84.07;101511.50;6115373;19;20017;-75
2023/07/13 02:27:46;;;;;;;5.30;2.38;;;;;;;15.95;84.40;101512.84;6114425;19;20010;-74
2023/07/13 02:29:53;;;;;;;8.25;3.38;;;;;;;15.97;84.75;101519.78;6114448;19;20074;-73
2023/07/13 02:31:58;;;;;;;6.90;2.53;;;;;;;15.98;85.49;101518.84;6115135;19;20082;-74
2023/07/13 02:34:04;;;;;;;7.35;2.45;;;;;;;16.02;86.00;101514.25;6113950;19;20039;-74
2023/07/13 02:36:10;;;;;;;7.72;2.53;;;;;;;16.02;86.28;101520.38;6112305;19;20491;-73
2023/07/13 02:38:16;;;;;;;7.53;2.38;;;;;;;16.06;86.23;101521.09;6107523;19;20390;-75
2023/07/13 02:40:21;;;;;;;8.43;3.15;;;;;;;16.06;86.81;101521.09;6114500;19;20011;-74
2023/07/13 02:42:26;;;;;;;11.75;3.03;;;;;;;16.02;87.12;101516.88;6111532;19;20011;-73
2023/07/13 02:44:31;;;;;;;12.50;3.28;;;;;;;16.05;87.83;101523.81;6114041;19;20023;-76
2023/07/13 02:46:39;;;;;;;13.48;3.35;;;;;;;16.04;88.06;101525.63;6112814;19;20011;-75
2023/07/13 02:48:45;;;;;;;11.05;2.83;;;;;;;16.06;88.73;101521.09;6111504;19;20020;-75
2023/07/13 02:50:50;;;;;;;8.35;3.50;;;;;;;16.06;88.92;101525.53;6112489;19;20460;-75
2023/07/13 02:52:55;;;;;;;8.57;2.97;;;;;;;16.04;89.63;101519.47;6112896;19;20022;-75
2023/07/13 02:55:02;;;;;;;11.05;3.83;;;;;;;16.06;90.31;101518.44;6112489;19;20011;-75
2023/07/13 02:57:09;;;;;;;13.20;3.72;;;;;;;16.08;90.66;101518.34;6111920;19;20026;-72
2023/07/13 02:59:14;;;;;;;10.82;3.33;;;;;;;16.08;91.00;101521.84;6111919;19;20018;-73
2023/07/13 03:01:21;;;;;;;12.15;3.28;;;;;;;16.06;90.66;101517.56;6111715;19;20030;-74
2023/07/13 03:03:27;;;;;;;8.90;3.00;;;;;;;16.10;91.08;101532.41;6111949;19;20026;-75
2023/07/13 03:05:35;;;;;;;11.68;3.55;;;;;;;16.09;91.41;101526.25;6109570;19;20003;-73
2023/07/13 03:07:40;;;;;;;9.15;3.33;;;;;;;16.11;91.71;101527.00;6110673;19;20460;-76
2023/07/13 03:09:45;;;;;;;11.65;3.60;;;;;;;16.08;91.70;101529.81;6109875;19;20023;-74
2023/07/13 03:11:50;;;;;;;7.13;3.05;;;;;;;16.12;92.08;101530.53;6111908;19;20002;-74
2023/07/13 03:13:55;;;;;;;12.20;3.55;;;;;;;16.13;92.73;101533.06;6111126;19;20010;-75
2023/07/13 03:16:05;;;;;;;16.55;4.40;;;;;;;16.11;93.34;101534.94;6111022;19;20010;-75
2023/07/13 03:18:10;;;;;;;10.25;3.67;;;;;;;16.16;93.06;101532.06;6110723;19;20390;-74
2023/07/13 03:20:19;;;;;;;18.23;4.03;;;;;;;16.14;93.41;101531.28;6106909;19;20011;-74
2023/07/13 03:22:24;;;;;;;15.90;3.58;;;;;;;16.13;93.27;101525.13;6109816;19;20006;-74
2023/07/13 03:24:29;;;;;;;14.75;4.50;;;;;;;16.12;93.52;101520.78;6112571;19;20014;-74
2023/07/13 03:26:35;;;;;;;14.55;3.70;;;;;;;16.12;93.54;101525.22;6112579;19;20023;-74
2023/07/13 03:28:37;;;;;;;11.07;3.63;;;;;;;16.15;93.98;101520.59;6111048;19;20361;-74
2023/07/13 03:30:45;;;;;;;9.13;3.35;;;;;;;16.15;94.14;101535.66;6105330;19;20014;-74
2023/07/13 03:32:51;;;;;;;14.93;3.58;;;;;;;16.19;94.43;101529.25;6108673;19;20010;-74
2023/07/13 03:34:56;;;;;;;13.38;3.75;;;;;;;16.19;94.12;101532.78;6113205;19;20058;-74
2023/07/13 03:37:07;;;;;;;13.07;3.72;;;;;;;16.21;93.97;101530.03;6111226;19;20022;-73
2023/07/13 03:39:12;;;;;;;13.63;3.92;;;;;;;16.20;93.88;101529.19;6108795;19;20013;-74
2023/07/13 03:41:18;;;;;;;14.85;4.75;;;;;;;16.18;94.95;101531.03;6109501;19;20042;-73
2023/07/13 03:43:23;;;;;;;15.15;3.90;;;;;;;16.15;94.80;101527.72;6111928;19;20007;-73
2023/07/13 03:45:28;;;;;;;13.57;3.55;;;;;;;16.16;94.01;101534.72;6112287;19;20039;-73
2023/07/13 03:47:33;;;;;;;11.80;3.60;;;;;;;16.16;94.64;101534.72;6111581;19;20007;-74
2023/07/13 03:49:39;;;;;;;13.35;3.65;;;;;;;16.19;94.85;101543.38;6116747;19;20022;-75
2023/07/13 03:51:44;;;;;;;11.70;3.88;;;;;;;16.17;95.34;101539.94;6115308;19;20018;-73
2023/07/13 03:53:52;;;;;;;12.57;3.60;;;;;;;16.19;95.05;101540.72;6116635;19;20078;-74
2023/07/13 03:55:57;;;;;;;15.15;3.83;;;;;;;16.17;95.17;101534.66;6116676;19;20039;-74
2023/07/13 03:58:21;;;;;;;12.38;4.13;;;;;;;16.16;95.18;101551.47;6114760;19;20007;-74
2023/07/13 04:00:26;;;;;;;15.15;3.50;;;;;;;16.16;94.52;101546.16;6112032;19;20015;-73
2023/07/13 04:02:31;;;;;;;12.52;3.35;;;;;;;16.18;95.03;101548.75;6112744;19;20036;-74
2023/07/13 04:04:40;;;;;;;12.45;3.30;;;;;;;16.21;95.05;101551.25;6115100;19;20018;-74
2023/07/13 04:06:45;;;;;;;12.65;3.20;;;;;;;16.23;94.75;101558.19;6115005;19;20328;-74
2023/07/13 04:08:55;;;;;;;11.80;3.67;;;;;;;16.27;94.64;101547.41;6116452;19;20341;-73
2023/07/13 04:11:06;;;;;;;12.68;3.45;;;;;;;16.26;94.61;101561.63;6116872;19;20007;-73
2023/07/13 04:13:11;;;;;;;13.98;3.70;;;;;;;16.32;94.74;101558.63;6117510;19;20014;-73
2023/07/13 04:15:16;;;;;;;11.18;2.95;;;;;;;16.40;94.11;101557.31;6117933;19;20014;-74
2023/07/13 04:17:22;;;;;;;11.88;3.20;;;;;;;16.41;94.23;101559.00;6117531;19;20467;-74
2023/07/13 04:19:29;;;;;;;9.25;2.97;;;;;;;16.43;93.87;101553.63;6118342;19;20066;-73
2023/07/13 04:21:32;;;;;;;9.25;3.25;;;;;;;16.51;93.88;101563.78;6116284;19;20015;-75
2023/07/13 04:23:38;;;;;;;13.98;3.88;;;;;;;16.56;93.65;101553.78;6118205;19;20382;-74
2023/07/13 04:25:49;;;;;;;12.65;3.13;;;;;;;16.70;93.06;101564.53;6115473;19;20014;-74
2023/07/13 04:27:55;;;;;;;12.40;3.80;;;;;;;16.72;92.52;101560.00;6116730;19;20029;-73
2023/07/13 04:30:02;;;;;;;10.48;3.95;;;;;;;16.73;92.13;101563.50;6116492;19;20019;-75
2023/07/13 04:32:08;;;;;;;14.32;3.08;;;;;;;16.74;92.27;101565.22;6116040;19;20449;-73
2023/07/13 04:34:13;;;;;;;13.68;3.50;;;;;;;16.72;92.05;101562.66;6112385;19;20017;-73
2023/07/13 04:36:16;;;;;;;12.23;4.10;;;;;;;16.74;91.97;101571.38;6115230;19;20424;-74
2023/07/13 04:38:21;;;;;;;12.82;3.58;;;;;;;16.76;91.83;101568.66;6114926;19;20475;-75
2023/07/13 04:40:26;;;;;;;10.82;3.28;;;;;;;16.78;91.62;101572.13;6116992;19;20035;-73
2023/07/13 04:42:35;;;;;;;10.30;3.30;;;;;;;16.73;91.61;101580.28;6116222;19;20018;-73
2023/07/13 04:44:37;;;;;;;9.18;3.47;;;;;;;16.76;91.53;101581.91;6117063;19;20401;-73
2023/07/13 04:46:42;;;;;;;15.82;3.92;;;;;;;16.82;90.85;101577.16;6116130;19;20463;-73
2023/07/13 04:48:48;;;;;;;7.22;2.92;;;;;;;16.92;90.56;101572.19;6113950;19;20027;-74
2023/07/13 04:50:57;;;;;;;9.07;3.25;;;;;;;17.01;90.22;101569.03;6113735;19;20002;-74
2023/07/13 04:53:03;;;;;;;13.77;3.80;;;;;;;17.08;89.50;101573.03;6114322;19;20017;-73
2023/07/13 04:55:10;;;;;;;8.00;2.95;;;;;;;17.13;89.39;101579.91;6116459;19;20007;-74
2023/07/13 04:57:15;;;;;;;11.93;3.70;;;;;;;17.21;88.31;101581.19;6115408;19;20018;-75
2023/07/13 04:59:23;;;;;;;10.60;2.97;;;;;;;17.34;87.71;101570.72;6114513;19;20090;-72
2023/07/13 05:01:28;;;;;;;9.10;3.20;;;;;;;17.60;86.12;101574.53;6114513;19;20075;-74
2023/07/13 05:03:35;;;;;;;7.60;3.38;;;;;;;17.84;85.12;101584.69;6114749;19;20328;-74
2023/07/13 05:05:41;;;;;;;8.38;2.90;;;;;;;18.04;84.18;101578.22;6114624;19;20049;-73
2023/07/13 05:07:46;;;;;;;5.93;2.67;;;;;;;18.06;83.84;101584.28;6115598;19;20458;-73
2023/07/13 05:09:54;;;;;;;9.40;3.25;;;;;;;18.12;83.10;101579.44;6116129;19;20019;-75
2023/07/13 05:11:59;;;;;;;11.50;3.20;;;;;;;18.39;81.98;101582.22;6110231;19;20029;-73
2023/07/13 05:14:04;;;;;;;8.35;2.97;;;;;;;18.44;80.73;101584.59;6112232;19;20014;-74
2023/07/13 05:16:11;;;;;;;10.80;3.55;;;;;;;18.41;80.72;101587.47;6113649;19;20358;-73
2023/07/13 05:18:16;;;;;;;6.25;2.70;;;;;;;18.28;81.25;101590.03;6111792;19;20467;-73
2023/07/13 05:20:22;;;;;;;8.80;2.83;;;;;;;18.19;81.05;101593.22;6114990;19;20087;-73
2023/07/13 05:22:29;;;;;;;8.48;3.30;;;;;;;18.17;80.96;101592.47;6114389;19;20011;-73
2023/07/13 05:24:32;;;;;;;9.55;3.25;;;;;;;18.24;81.06;101596.47;6115116;19;20030;-74
2023/07/13 05:26:40;;;;;;;12.05;3.03;;;;;;;18.32;79.66;101596.84;6115641;19;20030;-73
2023/07/13 05:28:45;;;;;;;6.25;2.58;;;;;;;18.23;79.46;101591.25;6111051;19;20022;-74
2023/07/13 05:30:51;;;;;;;9.07;3.03;;;;;;;18.13;79.93;101598.91;6112239;19;20011;-72
2023/07/13 05:32:59;;;;;;;6.18;2.67;;;;;;;18.11;80.22;101598.16;6114016;19;20010;-72
2023/07/13 05:35:05;;;;;;;11.15;3.10;;;;;;;18.06;80.58;101600.22;6112622;19;20038;-74
2023/07/13 05:37:11;;;;;;;7.28;2.47;;;;;;;18.09;79.74;101608.91;6109888;19;20023;-72
2023/07/13 05:39:16;;;;;;;11.10;3.13;;;;;;;18.19;79.11;101607.41;6109100;19;20016;-73
2023/07/13 05:41:21;;;;;;;8.77;3.53;;;;;;;18.26;79.74;101602.56;6111057;19;20014;-72
2023/07/13 05:43:26;;;;;;;12.00;3.40;;;;;;;18.45;78.49;101606.75;6113071;19;20459;-74
2023/07/13 05:45:32;;;;;;;9.27;2.78;;;;;;;18.96;77.13;101607.16;6111706;19;20016;-74
2023/07/13 05:47:38;;;;;;;9.27;3.05;;;;;;;18.96;77.11;101610.66;6111125;19;20018;-73
2023/07/13 05:49:46;;;;;;;4.78;2.70;;;;;;;18.75;77.08;101610.22;6110791;19;20010;-72
2023/07/13 05:51:50;;;;;;;5.65;2.90;;;;;;;18.80;77.66;101612.56;6111279;19;20026;-72
2023/07/13 05:53:58;;;;;;;6.20;2.97;;;;;;;18.80;76.97;101618.78;6109129;19;20023;-74
2023/07/13 05:56:03;;;;;;;8.98;3.28;;;;;;;18.65;77.43;101614.38;6112070;19;20481;-72
2023/07/13 05:58:09;;;;;;;9.48;2.92;;;;;;;18.59;77.65;101612.94;6112455;19;20463;-72
2023/07/13 06:00:16;;;;;;;6.22;2.65;;;;;;;18.49;77.81;101625.09;6110230;19;20082;-72
2023/07/13 06:02:21;;;;;;;8.98;2.70;;;;;;;18.39;78.10;101622.13;6110528;19;20035;-73
2023/07/13 06:04:26;;;;;;;12.23;3.92;;;;;;;18.26;80.80;101622.97;6107516;19;20021;-73
2023/07/13 06:06:35;;;;;;;13.55;4.68;;;;;;;18.20;81.93;101626.88;6108461;19;20023;-73
2023/07/13 06:08:41;;;;;;;13.25;3.65;;;;;;;18.05;82.98;101633.09;6110661;19;20093;-73
2023/07/13 06:10:46;;;;;;;10.43;3.60;;;;;;;18.13;82.40;101633.50;6108225;19;20119;-73
2023/07/13 06:12:51;;;;;;;12.27;3.47;;;;;;;18.03;82.43;101632.34;6111341;19;20015;-72
2023/07/13 06:14:56;;;;;;;7.28;2.78;;;;;;;18.02;80.93;101636.81;6111044;19;20006;-74
2023/07/13 06:17:02;;;;;;;12.52;3.47;;;;;;;18.02;81.27;101646.59;6111010;19;20094;-73
2023/07/13 06:19:08;;;;;;;9.27;3.35;;;;;;;17.99;81.86;101640.50;6110796;19;20011;-72
2023/07/13 06:21:13;;;;;;;10.07;3.40;;;;;;;18.08;82.00;101643.56;6112980;19;20006;-72
2023/07/13 06:23:20;;;;;;;10.43;3.53;;;;;;;18.57;81.07;101646.78;6111459;19;20022;-72
2023/07/13 06:25:25;;;;;;;8.13;3.20;;;;;;;18.55;81.18;101651.34;6111045;19;20355;-73
2023/07/13 06:27:33;;;;;;;10.77;3.55;;;;;;;18.72;79.20;101641.44;6113861;19;20082;-72
2023/07/13 06:29:39;;;;;;;10.05;3.78;;;;;;;18.57;79.12;101651.25;6109992;19;20058;-72
2023/07/13 06:31:47;;;;;;;9.07;3.47;;;;;;;18.50;78.89;101652.56;6110930;19;20019;-73
2023/07/13 06:33:53;;;;;;;8.13;3.22;;;;;;;18.51;77.38;101655.16;6112002;19;20011;-74
2023/07/13 06:35:59;;;;;;;6.45;3.03;;;;;;;18.59;76.41;101657.34;6108396;19;20054;-74
2023/07/13 06:38:05;;;;;;;8.85;3.42;;;;;;;18.60;76.54;101649.25;6111924;19;20032;-72
2023/07/13 06:40:13;;;;;;;8.38;3.25;;;;;;;18.57;75.32;101651.25;6112139;19;20351;-73
2023/07/13 06:42:19;;;;;;;12.38;3.72;;;;;;;18.63;75.50;101650.88;6109093;19;20023;-74
2023/07/13 06:44:24;;;;;;;7.07;3.42;;;;;;;18.68;75.42;101651.44;6111850;19;20007;-74
2023/07/13 06:46:31;;;;;;;6.45;3.05;;;;;;;18.62;73.68;101658.00;6112969;19;20023;-76
2023/07/13 06:48:36;;;;;;;7.25;3.00;;;;;;;18.79;73.89;101653.47;6113695;19;20372;-73
2023/07/13 06:50:41;;;;;;;9.43;2.80;;;;;;;18.88;73.13;101658.25;6112211;19;20015;-73
2023/07/13 06:52:46;;;;;;;8.32;2.83;;;;;;;19.06;72.82;101650.88;6112013;19;20018;-73
2023/07/13 06:54:51;;;;;;;9.80;2.90;;;;;;;19.16;73.10;101656.47;6112526;19;20014;-73
2023/07/13 06:56:59;;;;;;;7.13;2.67;;;;;;;19.11;72.63;101654.09;6112510;19;20483;-72
2023/07/13 06:59:05;;;;;;;8.55;3.47;;;;;;;19.01;72.68;101667.16;6111028;19;20017;-73
2023/07/13 07:01:10;;;;;;;10.82;3.30;;;;;;;19.48;70.73;101662.41;6111000;19;20006;-73
2023/07/13 07:03:15;;;;;;;10.00;4.15;;;;;;;20.55;69.45;101663.25;6111144;19;20016;-73
2023/07/13 07:05:21;;;;;;;7.95;3.55;;;;;;;21.29;67.18;101665.19;6112104;19;20020;-74
2023/07/13 07:07:27;;;;;;;10.73;3.42;;;;;;;21.36;65.59;101664.66;6110160;19;20377;-73
2023/07/13 07:09:35;;;;;;;11.80;3.47;;;;;;;22.20;63.96;101668.25;6111455;19;20487;-73
2023/07/13 07:11:40;;;;;;;9.10;3.47;;;;;;;21.69;65.27;101665.81;6111994;19;20010;-74
2023/07/13 07:14:08;;;;;;;6.95;3.10;;;;;;;21.09;65.22;101653.25;6111084;19;20007;-76
2023/07/13 07:16:13;;;;;;;6.28;2.83;;;;;;;21.46;63.63;101675.56;6113250;19;20014;-75
2023/07/13 07:18:18;;;;;;;8.13;3.30;;;;;;;21.56;61.90;101670.38;6109381;19;20417;-72
2023/07/13 07:20:26;;;;;;;9.80;2.95;;;;;;;20.80;63.71;101678.44;6111559;19;20015;-72
2023/07/13 07:22:31;;;;;;;10.77;3.92;;;;;;;20.71;64.95;101668.38;6108216;19;20040;-72
2023/07/13 07:24:37;;;;;;;6.00;3.10;;;;;;;20.69;64.44;101677.47;6118927;19;20039;-72
2023/07/13 07:26:42;;;;;;;5.07;2.88;;;;;;;21.43;63.92;101676.66;6117322;19;20126;-75
2023/07/13 07:28:50;;;;;;;7.32;3.63;;;;;;;21.87;61.70;101683.16;6114363;19;20006;-73
2023/07/13 07:31:18;;;;;;;7.95;3.10;;;;;;;21.97;59.80;101683.34;6115367;19;20006;-73
2023/07/13 07:33:29;;;;;;;6.05;2.78;;;;;;;22.06;60.17;101679.13;6114418;19;20011;-73
2023/07/13 07:35:34;;;;;;;5.68;2.55;;;;;;;22.34;60.35;101678.75;6116180;19;20018;-72
2023/07/13 07:37:59;;;;;;;8.13;2.75;;;;;;;23.27;58.78;101679.56;6117244;19;20070;-74
2023/07/13 07:40:05;;;;;;;9.18;2.92;;;;;;;22.57;58.83;101679.66;6117416;19;20030;-73
2023/07/13 07:42:20;;;;;;;10.00;3.17;;;;;;;21.80;60.74;101684.63;6116348;19;20013;-74
2023/07/13 07:44:26;;;;;;;9.73;3.20;;;;;;;21.43;61.59;101695.34;6113679;19;20015;-74
2023/07/13 07:46:40;;;;;;;7.35;2.67;;;;;;;20.91;63.48;101693.72;6115806;19;20022;-72
2023/07/13 07:48:45;;;;;;;7.55;2.90;;;;;;;20.73;64.25;101695.00;6115688;19;20019;-73
2023/07/13 07:50:52;;;;;;;8.57;3.40;;;;;;;20.36;65.35;101693.03;6115660;19;20011;-73
2023/07/13 07:52:58;;;;;;;6.38;2.83;;;;;;;20.62;65.78;101698.44;6114253;19;20026;-74
2023/07/13 07:55:03;;;;;;;13.02;3.15;;;;;;;20.54;65.54;101698.94;6114457;19;20477;-74
2023/07/13 07:57:14;;;;;;;13.10;3.47;;;;;;;22.02;61.91;101705.25;6116407;19;20019;-72
2023/07/13 07:59:22;;;;;;;8.80;3.20;;;;;;;21.78;61.60;101699.94;6115425;19;20393;-73
2023/07/13 08:01:32;;;;;;;8.07;3.20;;;;;;;21.51;61.81;101702.78;6116190;19;20157;-73
2023/07/13 08:03:43;;;;;;;8.95;3.00;;;;;;;20.79;63.64;101714.13;6115685;19;20495;-73
2023/07/13 08:05:51;;;;;;;7.80;3.30;;;;;;;20.35;64.08;101698.44;6115604;19;20019;-73
2023/07/13 08:07:59;;;;;;;8.45;3.25;;;;;;;21.22;62.16;101704.88;6115453;19;20047;-73
2023/07/13 08:10:04;;;;;;;6.50;3.50;;;;;;;21.69;59.60;101697.91;6116178;19;20011;-74
2023/07/13 08:12:10;;;;;;;9.82;3.60;;;;;;;22.45;58.15;101698.50;6116555;19;20346;-74
2023/07/13 08:14:18;;;;;;;6.95;2.97;;;;;;;22.91;56.13;101702.97;6111522;19;20007;-73
2023/07/13 08:16:24;;;;;;;8.07;3.28;;;;;;;22.50;56.94;101685.59;6116181;19;20023;-72
2023/07/13 08:18:30;;;;;;;6.20;2.58;;;;;;;22.29;57.55;101707.69;6114422;19;20051;-72
2023/07/13 08:20:39;;;;;;;7.75;2.70;;;;;;;22.14;58.35;101690.97;6115738;19;20074;-73
2023/07/13 08:22:47;;;;;;;7.15;3.13;;;;;;;22.50;56.53;101699.84;6116023;19;20122;-72
2023/07/13 08:24:55;;;;;;;8.85;2.70;;;;;;;22.07;58.48;101703.09;6114992;19;20023;-73
2023/07/13 08:27:03;;;;;;;8.32;3.35;;;;;;;21.87;58.96;101701.91;6116093;19;20026;-73
2023/07/13 08:29:09;;;;;;;6.50;3.35;;;;;;;21.19;61.77;101699.75;6116137;19;20082;-72
2023/07/13 08:31:14;;;;;;;9.90;3.38;;;;;;;20.93;62.20;101706.94;6116507;19;20115;-74
2023/07/13 08:33:20;;;;;;;7.82;2.90;;;;;;;21.21;62.06;101703.19;6116989;19;20015;-76
2023/07/13 08:35:25;;;;;;;7.88;3.75;;;;;;;21.09;62.43;101710.28;6112854;19;20006;-74
2023/07/13 08:37:33;;;;;;;9.07;3.28;;;;;;;20.94;62.40;101714.03;6114509;19;20019;-73
2023/07/13 08:39:39;;;;;;;6.00;3.35;;;;;;;20.93;66.62;101717.63;6116529;19;20153;-72
2023/07/13 08:41:46;;;;;;;11.90;3.80;;;;;;;20.96;66.49;101712.09;6114564;19;20486;-73
2023/07/13 08:43:56;;;;;;;11.80;4.05;;;;;;;20.93;65.27;101715.84;6114576;19;20042;-73
2023/07/13 08:46:05;;;;;;;7.63;3.08;;;;;;;20.63;65.02;101713.47;6116603;19;20510;-73
2023/07/13 08:48:16;;;;;;;7.30;3.30;;;;;;;20.47;64.49;101710.13;6115538;19;20070;-73
2023/07/13 08:50:24;;;;;;;7.57;3.00;;;;;;;20.23;63.92;101717.97;6112215;19;20014;-73
2023/07/13 08:52:39;;;;;;;6.65;2.80;;;;;;;20.18;64.35;101711.13;6114841;19;20019;-73
2023/07/13 08:54:48;;;;;;;8.35;3.00;;;;;;;20.14;65.77;101714.09;6115142;19;20014;-74
2023/07/13 08:56:56;;;;;;;6.57;2.90;;;;;;;20.89;62.76;101710.81;6114283;19;20034;-73
2023/07/13 08:59:06;;;;;;;7.70;2.72;;;;;;;21.72;58.60;101708.38;6113982;19;20058;-73
2023/07/13 09:01:22;;;;;;;7.13;3.05;;;;;;;22.02;57.18;101715.13;6113670;19;20365;-76
2023/07/13 09:03:33;;;;;;;7.50;3.40;;;;;;;22.75;55.66;101716.72;6115742;19;20502;-75
2023/07/13 09:05:42;;;;;;;7.78;3.72;;;;;;;22.74;56.14;101712.31;6115746;19;20013;-74
2023/07/13 09:08:05;;;;;;;7.72;3.22;;;;;;;22.77;54.51;101715.59;6114991;19;20007;-72
2023/07/13 09:10:20;;;;;;;6.65;2.97;;;;;;;22.76;55.34;101718.41;6115423;19;20078;-74
2023/07/13 09:12:37;;;;;;;9.27;3.55;;;;;;;21.61;58.68;101732.41;6108279;19;20007;-73
2023/07/13 09:14:48;;;;;;;10.23;4.25;;;;;;;21.37;60.49;101732.34;6114835;19;20147;-73
2023/07/13 09:16:54;;;;;;;11.68;3.95;;;;;;;21.55;60.88;101740.88;6113554;19;20006;-72
2023/07/13 09:19:06;;;;;;;9.02;3.10;;;;;;;21.46;61.55;101729.91;6111646;19;20114;-73
2023/07/13 09:21:15;;;;;;;13.63;3.63;;;;;;;21.61;61.57;101724.38;6114484;19;20038;-73
2023/07/13 09:23:25;;;;;;;8.65;3.50;;;;;;;22.42;60.54;101726.38;6113244;19;20018;-73
2023/07/13 09:25:35;;;;;;;7.72;2.60;;;;;;;21.36;61.88;101741.34;6114518;19;20021;-73
2023/07/13 09:27:45;;;;;;;8.20;2.70;;;;;;;20.63;60.85;101740.19;6113930;19;20003;-73
2023/07/13 09:29:54;;;;;;;8.23;2.90;;;;;;;20.21;62.72;101742.09;6111400;19;20018;-73
2023/07/13 09:32:04;;;;;;;7.72;2.83;;;;;;;20.13;67.31;101739.09;6113975;19;20039;-74
2023/07/13 09:34:12;;;;;;;5.50;2.70;;;;;;;20.30;70.46;101740.63;6112518;19;20007;-74
2023/07/13 09:36:23;;;;;;;5.05;3.10;;;;;;;19.87;71.01;101740.81;6109182;19;20021;-73
2023/07/13 09:38:33;;;;;;;10.07;3.08;;;;;;;19.94;71.08;101747.47;6115178;19;20035;-73
2023/07/13 09:40:49;;;;;;;5.78;2.65;;;;;;;19.94;72.33;101753.63;6113790;19;20410;-74
2023/07/13 09:42:56;;;;;;;7.25;3.30;;;;;;;19.75;71.85;101755.81;6112139;19;20010;-73
2023/07/13 09:45:03;;;;;;;9.05;3.60;;;;;;;19.70;71.78;101756.09;6113062;19;20019;-74
2023/07/13 09:47:19;;;;;;;8.45;3.30;;;;;;;21.10;70.97;101764.56;6112860;19;20015;-73
2023/07/13 09:49:28;;;;;;;12.02;4.07;;;;;;;21.83;70.38;101756.63;6114118;19;20051;-73